createdAt,value
2019-03-29T00:00:34.330Z,8.70
2019-03-29T00:03:01.546Z,8.69
2019-03-29T00:05:28.602Z,8.69
2019-03-29T00:07:55.641Z,8.68
2019-03-29T00:10:22.736Z,8.69
2019-03-29T00:12:49.770Z,8.67
2019-03-29T00:15:16.884Z,8.69
2019-03-29T00:17:44.165Z,8.68
2019-03-29T00:20:11.671Z,8.68
2019-03-29T00:22:38.721Z,8.66
2019-03-29T00:25:07.177Z,8.66
2019-03-29T00:27:35.326Z,8.67
2019-03-29T00:30:03.423Z,8.66
2019-03-29T00:32:31.913Z,8.65
2019-03-29T00:34:59.421Z,8.65
2019-03-29T00:37:26.446Z,8.63
2019-03-29T00:39:53.534Z,8.62
2019-03-29T00:42:21.653Z,8.59
2019-03-29T00:44:49.533Z,8.53
2019-03-29T00:47:17.560Z,8.45
2019-03-29T00:49:44.614Z,8.37
2019-03-29T00:52:14.755Z,8.34
2019-03-29T00:54:43.442Z,8.31
2019-03-29T00:57:13.564Z,8.31
2019-03-29T00:59:45.016Z,8.33
2019-03-29T01:02:12.198Z,8.34
2019-03-29T01:04:39.227Z,8.40
2019-03-29T01:07:06.325Z,8.42
2019-03-29T01:09:33.845Z,8.42
2019-03-29T01:12:03.447Z,8.43
2019-03-29T01:14:30.905Z,8.41
2019-03-29T01:16:58.035Z,8.40
2019-03-29T01:19:25.098Z,8.40
2019-03-29T01:21:55.309Z,8.39
2019-03-29T01:24:24.808Z,8.40
2019-03-29T01:26:52.383Z,8.42
2019-03-29T01:29:22.870Z,8.41
2019-03-29T01:31:49.940Z,8.41
2019-03-29T01:34:17.136Z,8.40
2019-03-29T01:36:44.441Z,8.41
2019-03-29T01:39:11.524Z,8.42
2019-03-29T01:41:39.095Z,8.42
2019-03-29T01:44:06.606Z,8.42
2019-03-29T01:46:33.731Z,8.42
2019-03-29T01:49:04.243Z,8.42
2019-03-29T01:51:31.327Z,8.41
2019-03-29T01:53:58.637Z,8.41
2019-03-29T01:56:25.667Z,8.40
2019-03-29T01:59:00.805Z,8.39
2019-03-29T02:01:28.426Z,8.37
2019-03-29T02:03:56.178Z,8.34
2019-03-29T02:06:23.376Z,8.32
2019-03-29T02:08:50.920Z,8.28
2019-03-29T02:11:18.074Z,8.24
2019-03-29T02:13:45.453Z,8.22
2019-03-29T02:16:12.695Z,8.20
2019-03-29T02:18:39.987Z,8.17
2019-03-29T02:21:07.160Z,8.14
2019-03-29T02:23:34.224Z,8.12
2019-03-29T02:26:01.353Z,8.12
2019-03-29T02:28:29.085Z,8.14
2019-03-29T02:30:56.545Z,8.15
2019-03-29T02:33:23.666Z,8.14
2019-03-29T02:35:51.024Z,8.14
2019-03-29T02:38:18.159Z,8.15
2019-03-29T02:40:45.262Z,8.15
2019-03-29T02:43:17.799Z,8.16
2019-03-29T02:45:44.891Z,8.14
2019-03-29T02:48:16.699Z,8.09
2019-03-29T02:50:44.403Z,7.95
2019-03-29T02:53:14.370Z,7.87
2019-03-29T02:55:43.885Z,7.83
2019-03-29T02:58:11.050Z,7.78
2019-03-29T03:00:38.087Z,7.77
2019-03-29T03:03:07.627Z,7.79
2019-03-29T03:05:34.854Z,7.81
2019-03-29T03:08:01.998Z,7.82
2019-03-29T03:10:29.203Z,7.84
2019-03-29T03:12:56.574Z,7.83
2019-03-29T03:15:23.595Z,7.85
2019-03-29T03:17:50.807Z,7.86
2019-03-29T03:20:18.327Z,7.87
2019-03-29T03:22:46.503Z,7.90
2019-03-29T03:25:13.658Z,7.92
2019-03-29T03:27:40.728Z,7.93
2019-03-29T03:30:08.399Z,7.94
2019-03-29T03:32:35.487Z,7.87
2019-03-29T03:35:03.402Z,7.80
2019-03-29T03:37:32.761Z,7.75
2019-03-29T03:39:59.964Z,7.70
2019-03-29T03:42:27.218Z,7.65
2019-03-29T03:44:54.324Z,7.62
2019-03-29T03:47:21.768Z,7.59
2019-03-29T03:49:48.783Z,7.62
2019-03-29T03:52:16.408Z,7.62
2019-03-29T03:54:43.833Z,7.63
2019-03-29T03:57:13.336Z,7.65
2019-03-29T03:59:41.015Z,7.68
2019-03-29T04:02:08.078Z,7.70
2019-03-29T04:04:37.647Z,7.71
2019-03-29T04:07:04.315Z,7.74
2019-03-29T04:09:48.046Z,7.74
2019-03-29T04:12:00.825Z,7.75
2019-03-29T04:14:28.211Z,7.76
2019-03-29T04:16:55.287Z,7.76
2019-03-29T04:19:22.308Z,7.74
2019-03-29T04:21:51.663Z,7.72
2019-03-29T04:24:18.747Z,7.75
2019-03-29T04:26:45.911Z,7.76
2019-03-29T04:29:13.334Z,7.75
2019-03-29T04:31:40.807Z,7.76
2019-03-29T04:34:10.775Z,7.76
2019-03-29T04:36:38.822Z,7.77
2019-03-29T04:39:06.061Z,7.76
2019-03-29T04:41:33.570Z,7.76
2019-03-29T04:44:00.676Z,7.75
2019-03-29T04:46:27.829Z,7.76
2019-03-29T04:48:54.917Z,7.77
2019-03-29T04:51:22.013Z,7.78
2019-03-29T04:53:49.441Z,7.78
2019-03-29T04:56:16.646Z,7.78
2019-03-29T04:58:43.821Z,7.77
2019-03-29T05:01:13.321Z,7.78
2019-03-29T05:03:40.491Z,7.76
2019-03-29T05:06:09.071Z,7.73
2019-03-29T05:08:36.197Z,7.74
2019-03-29T05:11:03.873Z,7.72
2019-03-29T05:13:32.982Z,7.68
2019-03-29T05:16:00.785Z,7.65
2019-03-29T05:18:27.830Z,7.62
2019-03-29T05:20:54.970Z,7.61
2019-03-29T05:23:22.226Z,7.63
2019-03-29T05:25:49.387Z,7.64
2019-03-29T05:28:17.496Z,7.68
2019-03-29T05:30:44.595Z,7.71
2019-03-29T05:33:11.806Z,7.76
2019-03-29T05:35:40.961Z,7.81
2019-03-29T05:38:08.161Z,7.85
2019-03-29T05:40:35.510Z,7.88
2019-03-29T05:43:02.908Z,7.91
2019-03-29T05:45:30.067Z,7.94
2019-03-29T05:47:59.543Z,7.98
2019-03-29T05:50:26.771Z,8.00
2019-03-29T05:52:54.098Z,8.04
2019-03-29T05:55:32.080Z,8.06
2019-03-29T05:57:53.056Z,8.10
2019-03-29T06:00:20.968Z,8.15
2019-03-29T06:02:48.086Z,8.21
2019-03-29T06:05:17.465Z,8.21
2019-03-29T06:07:44.845Z,8.22
2019-03-29T06:10:12.209Z,8.21
2019-03-29T06:12:39.336Z,8.21
2019-03-29T06:15:07.754Z,8.22
2019-03-29T06:17:47.608Z,8.22
2019-03-29T06:20:05.278Z,8.23
2019-03-29T06:22:32.474Z,8.26
2019-03-29T06:24:59.598Z,8.31
2019-03-29T06:27:28.919Z,8.31
2019-03-29T06:29:59.492Z,8.36
2019-03-29T06:32:26.706Z,8.35
2019-03-29T06:34:54.235Z,8.35
2019-03-29T06:37:22.251Z,8.40
2019-03-29T06:39:50.212Z,8.41
2019-03-29T06:42:17.433Z,8.43
2019-03-29T06:44:44.734Z,8.48
2019-03-29T06:47:16.675Z,8.54
2019-03-29T06:49:43.815Z,8.56
2019-03-29T06:52:12.170Z,8.58
2019-03-29T06:54:39.408Z,8.59
2019-03-29T06:57:08.632Z,8.66
2019-03-29T06:59:36.471Z,8.69
2019-03-29T07:02:06.012Z,8.72
2019-03-29T07:04:33.526Z,8.81
2019-03-29T07:07:00.752Z,8.91
2019-03-29T07:09:30.048Z,8.96
2019-03-29T07:11:57.639Z,9.07
2019-03-29T07:14:27.288Z,9.10
2019-03-29T07:16:54.945Z,9.14
2019-03-29T07:19:22.298Z,9.18
2019-03-29T07:21:49.478Z,9.22
2019-03-29T07:24:16.811Z,9.25
2019-03-29T07:26:43.967Z,9.33
2019-03-29T07:29:11.840Z,9.38
2019-03-29T07:31:39.010Z,9.35
2019-03-29T07:34:06.250Z,9.44
2019-03-29T07:36:35.580Z,9.52
2019-03-29T07:39:04.971Z,9.59
2019-03-29T07:41:35.023Z,9.68
2019-03-29T07:44:02.957Z,9.73
2019-03-29T07:46:33.179Z,9.81
2019-03-29T07:49:06.214Z,9.84
2019-03-29T07:51:37.711Z,9.90
2019-03-29T07:54:09.967Z,9.96
2019-03-29T07:56:37.689Z,10.06
2019-03-29T07:59:04.958Z,10.21
2019-03-29T08:01:38.393Z,10.29
2019-03-29T08:04:05.663Z,10.37
2019-03-29T08:06:36.443Z,10.49
2019-03-29T08:09:05.740Z,10.53
2019-03-29T08:11:45.446Z,10.66
2019-03-29T08:14:04.227Z,10.74
2019-03-29T08:16:31.286Z,10.74
2019-03-29T08:18:58.511Z,10.87
2019-03-29T08:21:25.631Z,11.01
2019-03-29T08:23:53.964Z,11.11
2019-03-29T08:26:21.166Z,11.22
2019-03-29T08:28:50.425Z,11.31
2019-03-29T08:31:27.711Z,11.39
2019-03-29T08:33:54.939Z,11.42
2019-03-29T08:36:23.174Z,11.41
2019-03-29T08:38:50.604Z,11.35
2019-03-29T08:41:17.822Z,11.54
2019-03-29T08:43:45.404Z,11.47
2019-03-29T08:46:12.775Z,11.51
2019-03-29T08:48:40.142Z,11.44
2019-03-29T08:51:07.453Z,11.61
2019-03-29T08:53:34.797Z,11.50
2019-03-29T08:56:01.991Z,11.60
2019-03-29T08:58:29.233Z,11.65
2019-03-29T09:00:56.319Z,11.72
2019-03-29T09:03:23.391Z,11.83
2019-03-29T09:05:50.622Z,11.93
2019-03-29T09:08:18.110Z,11.99
2019-03-29T09:10:45.337Z,11.84
2019-03-29T09:13:12.510Z,11.79
2019-03-29T09:15:41.409Z,11.81
2019-03-29T09:18:08.755Z,11.76
2019-03-29T09:20:37.959Z,11.91
2019-03-29T09:23:06.188Z,11.87
2019-03-29T09:25:33.545Z,11.85
2019-03-29T09:28:01.492Z,11.93
2019-03-29T09:30:28.839Z,11.81
2019-03-29T09:32:56.281Z,11.84
2019-03-29T09:35:23.567Z,12.00
2019-03-29T09:37:50.750Z,11.83
2019-03-29T09:40:18.156Z,11.95
2019-03-29T09:42:45.479Z,12.00
2019-03-29T09:45:13.557Z,11.98
2019-03-29T09:47:41.110Z,12.00
2019-03-29T09:50:10.617Z,11.94
2019-03-29T09:52:38.191Z,12.08
2019-03-29T09:55:08.448Z,11.98
2019-03-29T09:57:41.425Z,12.18
2019-03-29T10:00:23.062Z,12.35
2019-03-29T10:02:50.923Z,12.30
2019-03-29T10:05:20.449Z,12.41
2019-03-29T10:07:49.441Z,12.47
2019-03-29T10:10:17.145Z,12.45
2019-03-29T10:12:48.325Z,12.50
2019-03-29T10:15:17.658Z,12.67
2019-03-29T10:17:57.463Z,12.84
2019-03-29T10:20:27.202Z,12.85
2019-03-29T10:22:56.767Z,12.68
2019-03-29T10:25:24.983Z,12.79
2019-03-29T10:27:52.375Z,12.86
2019-03-29T10:30:36.428Z,12.79
2019-03-29T10:33:05.442Z,12.72
2019-03-29T10:35:34.166Z,12.77
2019-03-29T10:38:01.677Z,12.84
2019-03-29T10:40:33.571Z,12.89
2019-03-29T10:43:01.392Z,12.90
2019-03-29T10:45:40.337Z,13.22
2019-03-29T10:48:17.849Z,13.63
2019-03-29T10:50:45.697Z,13.91
2019-03-29T10:53:13.656Z,14.27
2019-03-29T10:55:45.434Z,14.42
2019-03-29T10:58:14.285Z,14.49
2019-03-29T11:00:42.417Z,14.24
2019-03-29T11:03:21.308Z,13.90
2019-03-29T11:05:49.434Z,13.94
2019-03-29T11:08:21.496Z,13.91
2019-03-29T11:10:48.691Z,14.08
2019-03-29T11:13:16.827Z,13.93
2019-03-29T11:15:44.452Z,13.95
2019-03-29T11:18:17.190Z,13.81
2019-03-29T11:20:46.896Z,13.92
2019-03-29T11:23:18.313Z,14.10
2019-03-29T11:25:49.927Z,14.14
2019-03-29T11:28:17.207Z,14.09
2019-03-29T11:30:44.409Z,14.16
2019-03-29T11:33:11.715Z,14.47
2019-03-29T11:35:39.754Z,14.59
2019-03-29T11:38:07.103Z,14.62
2019-03-29T11:40:34.300Z,14.71
2019-03-29T11:43:02.050Z,14.70
2019-03-29T11:45:29.803Z,14.90
2019-03-29T11:48:08.222Z,15.47
2019-03-29T11:50:29.872Z,16.43
2019-03-29T11:52:56.974Z,17.27
2019-03-29T11:55:24.193Z,17.80
2019-03-29T11:57:56.031Z,17.80
2019-03-29T12:00:35.038Z,18.19
2019-03-29T12:03:02.572Z,17.98
2019-03-29T12:05:30.095Z,17.53
2019-03-29T12:07:59.729Z,17.90
2019-03-29T12:10:27.112Z,17.99
2019-03-29T12:12:54.432Z,18.08
2019-03-29T12:15:21.627Z,18.20
2019-03-29T12:17:49.003Z,18.72
2019-03-29T12:20:16.185Z,19.14
2019-03-29T12:22:44.605Z,18.83
2019-03-29T12:25:12.100Z,18.67
2019-03-29T12:27:39.273Z,18.83
2019-03-29T12:30:08.160Z,19.17
2019-03-29T12:32:37.115Z,19.51
2019-03-29T12:35:04.996Z,19.14
2019-03-29T12:37:32.215Z,18.88
2019-03-29T12:39:59.583Z,17.44
2019-03-29T12:42:26.891Z,18.01
2019-03-29T12:44:54.110Z,17.30
2019-03-29T12:47:21.381Z,17.48
2019-03-29T12:49:49.324Z,17.10
2019-03-29T12:52:17.162Z,17.49
2019-03-29T12:54:48.916Z,17.22
2019-03-29T12:57:16.703Z,17.13
2019-03-29T12:59:44.558Z,16.48
2019-03-29T13:02:12.194Z,16.59
2019-03-29T13:04:42.523Z,16.50
2019-03-29T13:07:12.031Z,16.21
2019-03-29T13:09:40.266Z,16.36
2019-03-29T13:12:16.409Z,16.36
2019-03-29T13:14:46.276Z,16.18
2019-03-29T13:17:13.743Z,16.45
2019-03-29T13:19:41.150Z,16.17
2019-03-29T13:22:10.932Z,16.17
2019-03-29T13:24:38.321Z,15.90
2019-03-29T13:27:05.682Z,15.70
2019-03-29T13:29:33.809Z,15.70
2019-03-29T13:32:04.442Z,15.64
2019-03-29T13:34:32.600Z,15.71
2019-03-29T13:37:00.882Z,15.71
2019-03-29T13:39:28.096Z,16.15
2019-03-29T13:41:55.444Z,16.06
2019-03-29T13:44:26.625Z,15.40
2019-03-29T13:46:52.389Z,15.40
2019-03-29T13:49:21.240Z,15.46
2019-03-29T13:51:48.701Z,15.34
2019-03-29T13:54:16.137Z,15.61
2019-03-29T13:56:43.679Z,15.52
2019-03-29T13:59:11.841Z,15.79
2019-03-29T14:01:39.680Z,15.46
2019-03-29T14:04:08.847Z,15.41
2019-03-29T14:06:36.431Z,15.07
2019-03-29T14:09:05.925Z,14.77
2019-03-29T14:11:33.483Z,14.91
2019-03-29T14:14:01.425Z,14.75
2019-03-29T14:16:28.771Z,14.89
2019-03-29T14:18:56.474Z,15.05
2019-03-29T14:21:24.607Z,15.33
2019-03-29T14:23:52.114Z,15.56
2019-03-29T14:26:19.614Z,15.46
2019-03-29T14:28:47.352Z,15.40
2019-03-29T14:31:15.137Z,15.30
2019-03-29T14:33:49.429Z,15.32
2019-03-29T14:36:17.760Z,15.12
2019-03-29T14:38:45.323Z,15.22
2019-03-29T14:41:13.024Z,15.17
2019-03-29T14:43:40.303Z,15.16
2019-03-29T14:46:07.667Z,15.26
2019-03-29T14:48:35.146Z,15.20
2019-03-29T14:51:03.175Z,15.23
2019-03-29T14:53:30.639Z,15.15
2019-03-29T14:56:01.465Z,15.19
2019-03-29T14:58:29.358Z,14.79
2019-03-29T15:00:56.572Z,14.91
2019-03-29T15:03:27.394Z,14.88
2019-03-29T15:05:56.994Z,14.87
2019-03-29T15:08:24.572Z,14.81
2019-03-29T15:10:52.124Z,14.88
2019-03-29T15:13:19.565Z,14.76
2019-03-29T15:15:46.820Z,14.82
2019-03-29T15:18:14.312Z,14.85
2019-03-29T15:20:53.391Z,14.83
2019-03-29T15:23:14.262Z,14.84
2019-03-29T15:25:42.543Z,14.82
2019-03-29T15:28:11.029Z,14.74
2019-03-29T15:30:38.653Z,14.64
2019-03-29T15:33:06.818Z,14.67
2019-03-29T15:35:40.298Z,14.62
2019-03-29T15:38:09.589Z,14.45
2019-03-29T15:40:37.155Z,14.48
2019-03-29T15:43:04.517Z,14.42
2019-03-29T15:45:32.075Z,14.39
2019-03-29T15:48:04.708Z,14.36
2019-03-29T15:50:31.691Z,14.34
2019-03-29T15:52:59.035Z,14.25
2019-03-29T15:55:26.582Z,14.26
2019-03-29T15:57:55.540Z,14.33
2019-03-29T16:00:22.674Z,14.45
2019-03-29T16:02:50.055Z,14.46
2019-03-29T16:05:18.165Z,14.41
2019-03-29T16:07:45.729Z,14.31
2019-03-29T16:10:13.524Z,14.29
2019-03-29T16:12:41.119Z,14.16
2019-03-29T16:15:08.371Z,14.13
2019-03-29T16:17:35.703Z,14.05
2019-03-29T16:20:03.337Z,14.01
2019-03-29T16:22:30.688Z,13.94
2019-03-29T16:24:59.008Z,13.93
2019-03-29T16:27:26.563Z,13.90
2019-03-29T16:29:54.556Z,13.92
2019-03-29T16:32:22.966Z,13.88
2019-03-29T16:34:52.538Z,13.84
2019-03-29T16:37:56.658Z,13.86
2019-03-29T16:40:15.460Z,13.81
2019-03-29T16:42:46.718Z,13.72
2019-03-29T16:45:14.493Z,13.62
2019-03-29T16:47:42.615Z,13.58
2019-03-29T16:50:12.173Z,13.53
2019-03-29T16:52:39.780Z,13.52
2019-03-29T16:55:13.702Z,13.46
2019-03-29T16:57:36.730Z,13.43
2019-03-29T17:00:06.598Z,13.41
2019-03-29T17:02:35.434Z,13.36
2019-03-29T17:05:04.313Z,13.35
2019-03-29T17:07:34.433Z,13.27
2019-03-29T17:10:03.792Z,13.17
2019-03-29T17:12:30.928Z,13.07
2019-03-29T17:15:00.739Z,13.00
2019-03-29T17:17:27.988Z,13.02
2019-03-29T17:19:55.201Z,12.93
2019-03-29T17:22:22.469Z,12.84
2019-03-29T17:24:56.918Z,12.77
2019-03-29T17:27:20.009Z,12.67
2019-03-29T17:29:48.310Z,12.53
2019-03-29T17:32:15.533Z,12.41
2019-03-29T17:34:42.884Z,12.36
2019-03-29T17:37:11.110Z,12.27
2019-03-29T17:39:38.406Z,12.20
2019-03-29T17:42:05.731Z,12.13
2019-03-29T17:44:32.899Z,12.06
2019-03-29T17:47:00.219Z,12.08
2019-03-29T17:49:27.475Z,11.99
2019-03-29T17:51:55.021Z,11.88
2019-03-29T17:54:24.019Z,11.67
2019-03-29T17:56:51.234Z,11.25
2019-03-29T17:59:18.675Z,10.97
2019-03-29T18:01:46.024Z,10.76
2019-03-29T18:04:13.277Z,10.58
2019-03-29T18:06:40.606Z,10.37
2019-03-29T18:09:08.266Z,10.21
2019-03-29T18:11:35.553Z,10.10
2019-03-29T18:14:03.199Z,9.97
2019-03-29T18:16:31.302Z,9.82
2019-03-29T18:19:03.011Z,9.70
2019-03-29T18:21:30.360Z,9.52
2019-03-29T18:23:59.493Z,9.37
2019-03-29T18:26:30.082Z,9.38
2019-03-29T18:29:04.712Z,9.41
2019-03-29T18:31:32.285Z,9.36
2019-03-29T18:34:08.468Z,9.36
2019-03-29T18:36:36.539Z,9.35
2019-03-29T18:39:06.196Z,9.29
2019-03-29T18:41:34.697Z,9.21
2019-03-29T18:44:02.733Z,9.08
2019-03-29T18:46:44.042Z,9.04
2019-03-29T18:49:00.309Z,8.95
2019-03-29T18:51:31.308Z,8.90
2019-03-29T18:54:01.482Z,8.80
2019-03-29T18:56:31.825Z,8.73
2019-03-29T18:59:02.331Z,8.66
2019-03-29T19:01:31.860Z,8.58
2019-03-29T19:04:00.569Z,8.55
2019-03-29T19:06:30.394Z,8.60
2019-03-29T19:09:00.045Z,8.61
2019-03-29T19:11:29.819Z,8.60
2019-03-29T19:13:59.866Z,8.52
2019-03-29T19:16:27.400Z,8.40
2019-03-29T19:19:09.169Z,8.33
2019-03-29T19:21:25.763Z,8.23
2019-03-29T19:23:53.209Z,8.23
2019-03-29T19:26:30.385Z,8.22
2019-03-29T19:28:57.785Z,8.19
2019-03-29T19:31:25.485Z,8.05
2019-03-29T19:33:53.418Z,7.96
2019-03-29T19:36:20.810Z,7.80
2019-03-29T19:38:50.758Z,7.71
2019-03-29T19:41:21.140Z,7.60
2019-03-29T19:43:51.479Z,7.54
2019-03-29T19:46:19.294Z,7.37
2019-03-29T19:48:47.512Z,7.34
2019-03-29T19:51:14.794Z,7.32
2019-03-29T19:53:44.872Z,7.28
2019-03-29T19:56:12.449Z,7.31
2019-03-29T19:58:39.528Z,7.35
2019-03-29T20:01:08.809Z,7.39
2019-03-29T20:03:39.104Z,7.41
2019-03-29T20:06:06.233Z,7.42
2019-03-29T20:08:39.020Z,7.46
2019-03-29T20:11:04.042Z,7.41
2019-03-29T20:13:34.235Z,7.31
2019-03-29T20:16:01.400Z,7.17
2019-03-29T20:18:33.278Z,7.06
2019-03-29T20:21:00.931Z,6.96
2019-03-29T20:23:28.200Z,6.85
2019-03-29T20:25:55.302Z,6.77
2019-03-29T20:28:24.442Z,6.77
2019-03-29T20:30:51.806Z,6.79
2019-03-29T20:33:19.116Z,6.83
2019-03-29T20:35:50.500Z,6.89
2019-03-29T20:38:20.754Z,6.89
2019-03-29T20:40:49.167Z,6.88
2019-03-29T20:43:17.723Z,6.87
2019-03-29T20:45:46.746Z,6.90
2019-03-29T20:48:15.321Z,6.89
2019-03-29T20:50:44.519Z,6.84
2019-03-29T20:53:12.632Z,6.72
2019-03-29T20:55:47.726Z,6.51
2019-03-29T20:58:15.267Z,6.38
2019-03-29T21:00:43.459Z,6.31
2019-03-29T21:03:10.825Z,6.23
2019-03-29T21:05:38.145Z,6.16
2019-03-29T21:08:05.353Z,6.05
2019-03-29T21:10:33.868Z,5.91
2019-03-29T21:13:00.982Z,5.83
2019-03-29T21:15:29.302Z,5.78
2019-03-29T21:17:59.291Z,5.69
2019-03-29T21:20:26.627Z,5.57
2019-03-29T21:22:53.958Z,5.46
2019-03-29T21:25:27.421Z,5.47
2019-03-29T21:27:58.276Z,5.51
2019-03-29T21:30:25.527Z,5.49
2019-03-29T21:32:52.809Z,5.50
2019-03-29T21:35:21.071Z,5.46
2019-03-29T21:37:49.945Z,5.40
2019-03-29T21:40:19.127Z,5.42
2019-03-29T21:42:46.232Z,5.42
2019-03-29T21:45:28.097Z,5.43
2019-03-29T21:48:01.523Z,5.48
2019-03-29T21:50:20.406Z,5.48
2019-03-29T21:52:48.027Z,5.50
2019-03-29T21:56:12.073Z,5.48
2019-03-29T21:57:54.173Z,5.45
2019-03-29T22:00:21.482Z,5.45
2019-03-29T22:02:48.647Z,5.46
2019-03-29T22:05:15.852Z,5.51
2019-03-29T22:07:43.089Z,5.48
2019-03-29T22:10:10.729Z,5.45
2019-03-29T22:12:38.543Z,5.32
2019-03-29T22:15:07.853Z,5.23
2019-03-29T22:17:35.198Z,5.20
2019-03-29T22:20:02.522Z,5.25
2019-03-29T22:22:29.610Z,5.31
2019-03-29T22:25:00.303Z,5.40
2019-03-29T22:27:31.715Z,5.37
2019-03-29T22:30:04.713Z,5.36
2019-03-29T22:32:37.710Z,5.23
2019-03-29T22:35:10.059Z,5.22
2019-03-29T22:37:44.023Z,5.24
2019-03-29T22:40:17.989Z,5.25
2019-03-29T22:42:46.565Z,5.23
2019-03-29T22:45:13.769Z,5.00
2019-03-29T22:47:42.958Z,4.92
2019-03-29T22:50:10.973Z,4.90
2019-03-29T22:52:39.383Z,4.91
2019-03-29T22:55:06.868Z,4.79
2019-03-29T22:57:37.233Z,4.70
2019-03-29T23:00:10.045Z,4.73
2019-03-29T23:02:37.643Z,4.87
2019-03-29T23:05:17.736Z,4.96
2019-03-29T23:07:45.218Z,4.99
2019-03-29T23:10:12.600Z,4.94
2019-03-29T23:12:39.774Z,4.88
2019-03-29T23:15:11.220Z,4.78
2019-03-29T23:17:39.379Z,4.72
2019-03-29T23:20:06.963Z,4.70
2019-03-29T23:22:34.830Z,4.71
2019-03-29T23:25:01.900Z,4.63
2019-03-29T23:27:31.145Z,4.57
2019-03-29T23:29:58.340Z,4.67
2019-03-29T23:32:25.589Z,4.67
2019-03-29T23:34:52.948Z,4.66
2019-03-29T23:37:20.241Z,4.72
2019-03-29T23:39:47.378Z,4.82
2019-03-29T23:42:14.496Z,4.84
2019-03-29T23:44:41.603Z,4.84
2019-03-29T23:47:08.732Z,4.71
2019-03-29T23:49:35.843Z,4.72
2019-03-29T23:52:03.104Z,4.74
2019-03-29T23:54:30.186Z,4.69
2019-03-29T23:56:57.284Z,4.63
2019-03-29T23:59:24.393Z,4.55
